Time;durP1;ratioP1;P1;durP2;ratioP2;P2;SDS_P1;SDS_P2;PMS_P1;PMS_P2;Temp;Humidity;BMP_temperature;BMP_pressure;BME280_temperature;BME280_humidity;BME280_pressure;Samples;Min_cycle;Max_cycle;Signal;HPM_P1;HPM_P2
2024/04/01 00:01:38;;;;;;;;;;;;;;;8.59;100.00;100126.69;5062867;28;19920;-65
2024/04/01 00:04:04;;;;;;;;;;;;;;;8.57;100.00;100134.00;5064562;28;19982;-66
2024/04/01 00:06:29;;;;;;;;;;;;;;;8.58;100.00;100122.38;5078073;28;19930;-65
2024/04/01 00:08:54;;;;;;;;;;;;;;;8.57;100.00;100123.38;5062653;28;19927;-66
2024/04/01 00:11:21;;;;;;;;;;;;;;;8.56;100.00;100127.03;5068745;28;19920;-66
2024/04/01 00:13:47;;;;;;;;;;;;;;;8.56;100.00;100137.66;5065910;28;19951;-67
2024/04/01 00:16:12;;;;;;;;;;;;;;;8.56;100.00;100142.97;5078729;28;20444;-66
2024/04/01 00:18:37;;;;;;;;;;;;;;;8.58;100.00;100131.19;5065174;28;19943;-66
2024/04/01 00:21:03;;;;;;;;;;;;;;;8.61;100.00;100137.97;5059012;28;19970;-66
2024/04/01 00:23:30;;;;;;;;;;;;;;;8.62;100.00;100131.69;5063855;28;19928;-67
2024/04/01 00:25:56;;;;;;;;;;;;;;;8.64;100.00;100116.41;5057655;28;19924;-66
2024/04/01 00:28:21;;;;;;;;;;;;;;;8.71;100.00;100116.59;5056902;28;19978;-67
2024/04/01 00:30:47;;;;;;;;;;;;;;;8.74;100.00;100117.09;5059988;28;20015;-65
2024/04/01 00:33:12;;;;;;;;;;;;;;;8.78;100.00;100137.00;5058405;28;20011;-66
2024/04/01 00:35:41;;;;;;;;;;;;;;;8.83;100.00;100150.59;5057842;28;20059;-67
2024/04/01 00:38:06;;;;;;;;;;;;;;;8.91;100.00;100158.56;5063414;28;19967;-66
2024/04/01 00:40:34;;;;;;;;;;;;;;;8.97;100.00;100152.59;5063735;28;20391;-66
2024/04/01 00:43:06;;;;;;;;;;;;;;;9.05;100.00;100151.75;5060989;28;19924;-66
2024/04/01 00:45:32;;;;;;;;;;;;;;;9.15;100.00;100148.91;5059400;28;19928;-68
2024/04/01 00:47:59;;;;;;;;;;;;;;;9.21;100.00;100145.59;5079641;28;20423;-67
2024/04/01 00:50:26;;;;;;;;;;;;;;;9.21;100.00;100142.94;5061827;28;19928;-66
2024/04/01 00:52:52;;;;;;;;;;;;;;;9.25;100.00;100136.28;5062205;28;19920;-66
2024/04/01 00:55:17;;;;;;;;;;;;;;;9.30;100.00;100123.34;5059837;28;19927;-66
2024/04/01 00:57:44;;;;;;;;;;;;;;;9.33;100.00;100123.00;5059356;28;19951;-66
2024/04/01 01:00:10;;;;;;;;;;;;;;;9.37;100.00;100111.00;5059405;28;19924;-67
2024/04/01 01:02:36;;;;;;;;;;;;;;;9.37;100.00;100100.38;5065922;28;19970;-65
2024/04/01 01:05:01;;;;;;;;;;;;;;;9.40;100.00;100100.03;5060641;28;19924;-66
2024/04/01 01:07:28;;;;;;;;;;;;;;;9.43;100.00;100091.72;5059761;28;19925;-68
2024/04/01 01:09:53;;;;;;;;;;;;;;;9.44;100.00;100093.38;5059614;28;19931;-66
2024/04/01 01:12:20;;;;;;;;;;;;;;;9.44;100.00;100096.03;5061208;28;19920;-68
2024/04/01 01:14:45;;;;;;;;;;;;;;;9.47;100.00;100089.53;5065940;28;20375;-65
2024/04/01 01:17:11;;;;;;;;;;;;;;;9.49;100.00;100082.22;5057873;28;19931;-65
2024/04/01 01:19:36;;;;;;;;;;;;;;;9.49;100.00;100077.75;5064764;28;20324;-67
2024/04/01 01:22:03;;;;;;;;;;;;;;;9.51;100.00;100070.41;5060702;28;19998;-67
2024/04/01 01:24:30;;;;;;;;;;;;;;;9.53;100.00;100071.06;5058994;28;19969;-67
2024/04/01 01:26:56;;;;;;;;;;;;;;;9.54;100.00;100059.47;5059512;28;19924;-67
2024/04/01 01:29:22;;;;;;;;;;;;;;;9.54;100.00;100054.16;5064938;28;20399;-66
2024/04/01 01:31:47;;;;;;;;;;;;;;;9.54;100.00;100048.84;5062563;28;20019;-68
2024/04/01 01:34:12;;;;;;;;;;;;;;;9.57;100.00;100042.34;5066953;28;20074;-68
2024/04/01 01:36:37;;;;;;;;;;;;;;;9.55;100.00;100031.88;5060637;28;20315;-66
2024/04/01 01:39:05;;;;;;;;;;;;;;;9.60;100.00;100031.34;5061788;28;20383;-68
2024/04/01 01:41:31;;;;;;;;;;;;;;;9.63;100.00;100009.75;5062224;28;20411;-66
2024/04/01 01:43:56;;;;;;;;;;;;;;;9.66;100.00;100003.25;5062429;28;19928;-67
2024/04/01 01:46:21;;;;;;;;;;;;;;;9.65;100.00;99997.09;5056264;28;20349;-67
2024/04/01 01:48:47;;;;;;;;;;;;;;;9.67;100.00;99994.25;5064016;28;19951;-66
2024/04/01 01:51:12;;;;;;;;;;;;;;;9.66;100.00;99984.63;5053330;28;20410;-65
2024/04/01 01:53:37;;;;;;;;;;;;;;;9.65;100.00;99977.66;5060090;28;20019;-66
2024/04/01 01:56:03;;;;;;;;;;;;;;;9.63;100.00;99961.88;5062647;28;19960;-66
2024/04/01 01:58:28;;;;;;;;;;;;;;;9.58;100.00;99948.31;5067213;28;19924;-66
2024/04/01 02:00:53;;;;;;;;;;;;;;;9.57;100.00;99939.50;5063406;28;19926;-67
2024/04/01 02:03:19;;;;;;;;;;;;;;;9.62;100.00;99920.34;5047519;28;19920;-68
2024/04/01 02:05:44;;;;;;;;;;;;;;;9.63;100.00;99906.88;5064027;28;19925;-67
2024/04/01 02:08:09;;;;;;;;;;;;;;;9.63;100.00;99898.09;5062331;28;19925;-66
2024/04/01 02:10:36;;;;;;;;;;;;;;;9.66;100.00;99891.56;5068540;28;19924;-69
2024/04/01 02:13:02;;;;;;;;;;;;;;;9.65;100.00;99898.72;5058961;28;19925;-66
2024/04/01 02:15:27;;;;;;;;;;;;;;;9.63;100.00;99909.53;5063840;28;20356;-66
2024/04/01 02:17:53;;;;;;;;;;;;;;;9.63;100.00;99937.97;5064367;28;20024;-67
2024/04/01 02:20:19;;;;;;;;;;;;;;;9.63;100.00;99919.34;5060906;28;19963;-68
2024/04/01 02:22:44;;;;;;;;;;;;;;;9.60;100.00;99898.44;5063854;28;19977;-68
2024/04/01 02:25:17;;;;;;;;;;;;;;;9.58;100.00;99893.31;5068116;28;20070;-67
2024/04/01 02:27:44;;;;;;;;;;;;;;;9.61;100.00;99908.91;5061054;28;19925;-65
2024/04/01 02:30:09;;;;;;;;;;;;;;;9.65;100.00;99913.84;5070414;28;19985;-65
2024/04/01 02:32:35;;;;;;;;;;;;;;;9.66;100.00;99907.53;5061625;28;19925;-66
2024/04/01 02:35:00;;;;;;;;;;;;;;;9.69;100.00;99915.16;5063778;28;19924;-65
2024/04/01 02:37:25;;;;;;;;;;;;;;;9.70;100.00;99916.81;5063732;28;20015;-67
2024/04/01 02:39:50;;;;;;;;;;;;;;;9.74;100.00;99910.94;5062609;28;19931;-68
2024/04/01 02:42:16;;;;;;;;;;;;;;;9.78;100.00;99895.47;5073281;28;20416;-66
2024/04/01 02:44:42;;;;;;;;;;;;;;;9.80;100.00;99883.63;5063000;28;19978;-67
2024/04/01 02:47:07;;;;;;;;;;;;;;;9.81;100.00;99874.66;5063193;28;20042;-67
2024/04/01 02:49:33;;;;;;;;;;;;;;;9.83;100.00;99879.78;5062537;28;20333;-66
2024/04/01 02:51:58;;;;;;;;;;;;;;;9.83;100.00;99877.13;5063197;28;19931;-68
2024/04/01 02:54:23;;;;;;;;;;;;;;;9.84;100.00;99870.84;5066234;28;19930;-66
2024/04/01 02:56:49;;;;;;;;;;;;;;;9.83;100.00;99874.47;5062427;28;20408;-65
2024/04/01 02:59:14;;;;;;;;;;;;;;;9.83;100.00;99869.16;5061633;28;19924;-68
2024/04/01 03:01:39;;;;;;;;;;;;;;;9.81;100.00;99847.22;5068591;28;19924;-69
2024/04/01 03:04:05;;;;;;;;;;;;;;;9.81;100.00;99857.88;5059445;28;20015;-66
2024/04/01 03:06:30;;;;;;;;;;;;;;;9.81;100.00;99857.88;5064211;28;20333;-67
2024/04/01 03:08:56;;;;;;;;;;;;;;;9.82;100.00;99848.88;5068871;28;19927;-65
2024/04/01 03:11:21;;;;;;;;;;;;;;;9.81;100.00;99850.72;5065032;28;19921;-66
2024/04/01 03:13:48;;;;;;;;;;;;;;;9.80;100.00;99853.56;5056195;28;19929;-66
2024/04/01 03:16:14;;;;;;;;;;;;;;;9.80;100.00;99850.91;5063153;28;19924;-66
2024/04/01 03:18:40;;;;;;;;;;;;;;;9.79;100.00;99849.25;5060064;28;20058;-66
2024/04/01 03:21:07;;;;;;;;;;;;;;;9.78;100.00;99859.06;5065276;28;20414;-67
2024/04/01 03:23:33;;;;;;;;;;;;;;;9.76;100.00;99868.22;5067131;28;19924;-66
2024/04/01 03:25:58;;;;;;;;;;;;;;;9.75;100.00;99858.59;5071384;28;20303;-66
2024/04/01 03:28:23;;;;;;;;;;;;;;;9.74;100.00;99870.25;5062013;28;19931;-66
2024/04/01 03:30:49;;;;;;;;;;;;;;;9.72;100.00;99869.59;5059946;28;19924;-70
2024/04/01 03:33:15;;;;;;;;;;;;;;;9.70;100.00;99866.28;5067973;28;20490;-69
2024/04/01 03:35:41;;;;;;;;;;;;;;;9.68;100.00;99858.50;5069796;28;19947;-66
2024/04/01 03:38:07;;;;;;;;;;;;;;;9.68;100.00;99860.31;5062507;28;20395;-67
2024/04/01 03:40:32;;;;;;;;;;;;;;;9.70;100.00;99853.00;5062160;28;20003;-67
2024/04/01 03:42:57;;;;;;;;;;;;;;;9.73;100.00;99849.97;5066654;28;20272;-68
2024/04/01 03:45:23;;;;;;;;;;;;;;;9.77;100.00;99854.75;5063609;28;19978;-68
2024/04/01 03:47:48;;;;;;;;;;;;;;;9.82;100.00;99848.88;5060676;28;20421;-66
2024/04/01 03:50:13;;;;;;;;;;;;;;;9.85;100.00;99848.56;5062010;28;20011;-66
2024/04/01 03:52:39;;;;;;;;;;;;;;;9.88;100.00;99858.84;5061408;28;19959;-66
2024/04/01 03:55:05;;;;;;;;;;;;;;;9.90;100.00;99835.53;5067094;28;19924;-66
2024/04/01 03:57:30;;;;;;;;;;;;;;;9.94;100.00;99848.28;5067567;28;19928;-66
2024/04/01 03:59:56;;;;;;;;;;;;;;;9.98;100.00;99840.78;5061943;28;20360;-66
2024/04/01 04:02:21;;;;;;;;;;;;;;;10.03;100.00;99842.88;5059882;28;19930;-66
2024/04/01 04:04:46;;;;;;;;;;;;;;;10.06;100.00;99846.00;5061235;28;19970;-66
2024/04/01 04:07:12;;;;;;;;;;;;;;;10.11;100.00;99838.28;5061512;28;19963;-68
2024/04/01 04:09:37;;;;;;;;;;;;;;;10.14;100.00;99848.59;5061031;28;20473;-67
2024/04/01 04:12:03;;;;;;;;;;;;;;;10.18;100.00;99839.25;5063391;28;19920;-67
2024/04/01 04:14:29;;;;;;;;;;;;;;;10.22;100.00;99834.41;5066550;28;20371;-67
2024/04/01 04:16:54;;;;;;;;;;;;;;;10.25;100.00;99831.38;5060508;28;20006;-65
2024/04/01 04:19:20;;;;;;;;;;;;;;;10.28;100.00;99828.34;5058282;28;19925;-65
2024/04/01 04:21:46;;;;;;;;;;;;;;;10.30;100.00;99825.50;5062609;28;19925;-68
2024/04/01 04:24:14;;;;;;;;;;;;;;;10.32;100.00;99828.81;5062886;28;20026;-66
2024/04/01 04:26:41;;;;;;;;;;;;;;;10.35;100.00;99825.78;5056002;28;19928;-68
2024/04/01 04:29:06;;;;;;;;;;;;;;;10.37;100.00;99818.44;5059789;28;19925;-67
2024/04/01 04:31:32;;;;;;;;;;;;;;;10.41;100.00;99819.75;5057064;28;20392;-65
2024/04/01 04:33:57;;;;;;;;;;;;;;;10.44;100.00;99809.53;5061888;28;19920;-67
2024/04/01 04:36:23;;;;;;;;;;;;;;;10.50;100.00;99805.31;5069398;28;20304;-66
2024/04/01 04:38:48;;;;;;;;;;;;;;;10.57;100.00;99800.91;5062883;28;19925;-66
2024/04/01 04:41:17;;;;;;;;;;;;;;;10.63;100.00;99800.16;5065402;28;19920;-67
2024/04/01 04:43:43;;;;;;;;;;;;;;;10.70;100.00;99787.75;5066772;28;19924;-67
2024/04/01 04:46:11;;;;;;;;;;;;;;;10.74;100.00;99786.38;5057176;28;19920;-68
2024/04/01 04:48:38;;;;;;;;;;;;;;;10.80;100.00;99790.94;5061218;28;19947;-68
2024/04/01 04:51:04;;;;;;;;;;;;;;;10.86;100.00;99784.84;5060106;28;20017;-67
2024/04/01 04:53:32;;;;;;;;;;;;;;;10.95;100.00;99774.91;5062096;28;20409;-68
2024/04/01 04:55:58;;;;;;;;;;;;;;;11.04;100.00;99770.28;5062182;28;19932;-69
2024/04/01 04:58:23;;;;;;;;;;;;;;;11.14;100.00;99773.47;5059440;28;19924;-68
2024/04/01 05:00:49;;;;;;;;;;;;;;;11.22;100.00;99765.31;5059206;28;20015;-66
2024/04/01 05:03:14;;;;;;;;;;;;;;;11.28;100.00;99769.09;5059427;28;19958;-68
2024/04/01 05:05:39;;;;;;;;;;;;;;;11.34;100.00;99766.47;5065504;28;19921;-66
2024/04/01 05:08:05;;;;;;;;;;;;;;;11.38;100.00;99765.06;5062025;28;19970;-66
2024/04/01 05:10:30;;;;;;;;;;;;;;;11.43;100.00;99773.31;5057919;28;19921;-66
2024/04/01 05:12:56;;;;;;;;;;;;;;;11.51;100.00;99766.19;5062413;28;19920;-68
2024/04/01 05:15:22;;;;;;;;;;;;;;;11.58;100.00;99773.25;5059727;28;19928;-66
2024/04/01 05:17:48;;;;;;;;;;;;;;;11.64;100.00;99771.66;5059564;28;20075;-66
2024/04/01 05:20:14;;;;;;;;;;;;;;;11.70;100.00;99781.53;5061581;28;19975;-69
2024/04/01 05:22:39;;;;;;;;;;;;;;;11.76;100.00;99772.75;5056126;28;19925;-69
2024/04/01 05:25:08;;;;;;;;;;;;;;;11.82;100.00;99774.66;5055272;28;20391;-66
2024/04/01 05:27:34;;;;;;;;;;;;;;;11.87;100.00;99776.78;5057321;28;19925;-67
2024/04/01 05:30:03;;;;;;;;;;;;;;;11.86;100.00;99775.97;5065929;28;19982;-69
2024/04/01 05:32:33;;;;;;;;;;;;;;;11.88;100.00;99781.09;5063410;28;19924;-66
2024/04/01 05:34:58;;;;;;;;;;;;;;;11.90;100.00;99773.72;5064865;28;19928;-68
2024/04/01 05:37:24;;;;;;;;;;;;;;;11.89;100.00;99770.22;5063133;28;20000;-67
2024/04/01 05:39:52;;;;;;;;;;;;;;;11.88;100.00;99763.25;5062057;28;20081;-66
2024/04/01 05:42:18;;;;;;;;;;;;;;;11.84;100.00;99745.94;5061743;28;19986;-69
2024/04/01 05:44:44;;;;;;;;;;;;;;;11.85;100.00;99744.94;5067605;28;19924;-67
2024/04/01 05:47:09;;;;;;;;;;;;;;;11.94;100.00;99733.09;5062646;28;19935;-66
2024/04/01 05:49:35;;;;;;;;;;;;;;;12.04;100.00;99740.75;5058973;28;19931;-68
2024/04/01 05:52:00;;;;;;;;;;;;;;;12.20;100.00;99723.59;5071625;28;19932;-67
2024/04/01 05:54:25;;;;;;;;;;;;;;;12.29;100.00;99727.72;5062299;28;19932;-68
2024/04/01 05:56:50;;;;;;;;;;;;;;;12.36;100.00;99720.56;5067763;28;19924;-67
2024/04/01 05:59:16;;;;;;;;;;;;;;;12.37;100.00;99711.53;5063069;28;19931;-67
2024/04/01 06:01:41;;;;;;;;;;;;;;;12.35;100.00;99701.06;5071015;28;19938;-68
2024/04/01 06:04:06;;;;;;;;;;;;;;;12.25;100.00;99691.78;5072103;28;19928;-66
2024/04/01 06:06:32;;;;;;;;;;;;;;;12.16;100.00;99677.78;5069001;28;20350;-68
2024/04/01 06:08:57;;;;;;;;;;;;;;;12.06;100.00;99667.47;5071096;28;19956;-70
2024/04/01 06:11:22;;;;;;;;;;;;;;;12.00;100.00;99675.44;5073100;28;19966;-70
2024/04/01 06:13:48;;;;;;;;;;;;;;;11.95;100.00;99661.88;5070386;28;19966;-68
2024/04/01 06:16:13;;;;;;;;;;;;;;;11.88;100.00;99656.53;5071415;28;19924;-67
2024/04/01 06:18:39;;;;;;;;;;;;;;;11.82;100.00;99641.28;5071914;28;19921;-67
2024/04/01 06:21:04;;;;;;;;;;;;;;;11.79;100.00;99639.84;5068276;28;19947;-68
2024/04/01 06:23:30;;;;;;;;;;;;;;;11.82;100.00;99619.94;5070506;28;19931;-68
2024/04/01 06:25:55;;;;;;;;;;;;;;;11.82;100.00;99641.28;5070635;28;19990;-69
2024/04/01 06:28:20;;;;;;;;;;;;;;;11.83;100.00;99632.25;5070318;28;20775;-69
2024/04/01 06:30:47;;;;;;;;;;;;;;;11.89;100.00;99646.69;5072258;28;19924;-67
2024/04/01 06:33:13;;;;;;;;;;;;;;;11.88;100.00;99640.53;5072278;28;19974;-68
2024/04/01 06:35:38;;;;;;;;;;;;;;;11.90;100.00;99638.47;5073881;28;19920;-69
2024/04/01 06:38:05;;;;;;;;;;;;;;;11.90;100.00;99634.97;5072061;28;19974;-69
2024/04/01 06:40:33;;;;;;;;;;;;;;;11.89;100.00;99626.16;5063452;28;20035;-70
2024/04/01 06:42:58;;;;;;;;;;;;;;;11.82;100.00;99603.94;5067723;28;19925;-68
2024/04/01 06:45:23;;;;;;;;;;;;;;;11.79;100.00;99588.34;5062554;28;20284;-70
2024/04/01 06:47:49;;;;;;;;;;;;;;;11.73;100.00;99583.78;5062882;28;19992;-67
2024/04/01 06:50:14;;;;;;;;;;;;;;;11.66;100.00;99566.94;5069635;28;19973;-69
2024/04/01 06:52:40;;;;;;;;;;;;;;;11.58;100.00;99553.78;5062057;28;19986;-65
2024/04/01 06:55:05;;;;;;;;;;;;;;;11.48;100.00;99557.59;5066687;28;20102;-67
2024/04/01 06:57:30;;;;;;;;;;;;;;;11.45;100.00;99566.00;5058991;28;20388;-66
2024/04/01 06:59:56;;;;;;;;;;;;;;;11.49;100.00;99542.44;5063289;28;19939;-69
2024/04/01 07:02:21;;;;;;;;;;;;;;;11.47;100.00;99582.63;5057800;28;19925;-70
2024/04/01 07:04:47;;;;;;;;;;;;;;;11.49;100.00;99619.75;5037679;28;20342;-69
2024/04/01 07:07:12;;;;;;;;;;;;;;;11.53;100.00;99588.19;5062829;28;20390;-68
2024/04/01 07:09:37;;;;;;;;;;;;;;;11.59;100.00;99592.75;5064550;28;19932;-69
2024/04/01 07:12:03;;;;;;;;;;;;;;;11.67;100.00;99601.41;5073338;28;19927;-71
2024/04/01 07:14:29;;;;;;;;;;;;;;;11.73;100.00;99613.94;5063762;28;20299;-70
2024/04/01 07:16:55;;;;;;;;;;;;;;;11.75;100.00;99606.56;5054759;28;19975;-68
2024/04/01 07:19:20;;;;;;;;;;;;;;;11.75;100.00;99608.41;5075195;28;19995;-71
2024/04/01 07:21:45;;;;;;;;;;;;;;;11.79;100.00;99607.00;5061720;28;19960;-67
2024/04/01 07:24:13;;;;;;;;;;;;;;;11.85;100.00;99614.22;5068084;28;19924;-68
2024/04/01 07:26:39;;;;;;;;;;;;;;;11.96;100.00;99600.31;5063416;28;19930;-69
2024/04/01 07:29:04;;;;;;;;;;;;;;;12.12;100.00;99608.97;5063273;28;19938;-66
2024/04/01 07:31:29;;;;;;;;;;;;;;;12.26;100.00;99600.81;5064245;28;19978;-66
2024/04/01 07:33:55;;;;;;;;;;;;;;;12.39;100.00;99613.38;5063742;28;20285;-70
2024/04/01 07:36:20;;;;;;;;;;;;;;;12.55;100.00;99614.84;5061950;28;19995;-74
2024/04/01 07:38:45;;;;;;;;;;;;;;;12.74;100.00;99619.41;5061169;28;19924;-68
2024/04/01 07:41:11;;;;;;;;;;;;;;;12.88;100.00;99605.00;5061085;28;20295;-66
2024/04/01 07:43:36;;;;;;;;;;;;;;;12.98;100.00;99588.56;5061537;28;20038;-68
2024/04/01 07:46:02;;;;;;;;;;;;;;;13.11;100.00;99588.56;5071020;28;20060;-68
2024/04/01 07:48:27;;;;;;;;;;;;;;;13.20;100.00;99587.34;5058218;28;20710;-68
2024/04/01 07:50:53;;;;;;;;;;;;;;;13.24;100.00;99577.84;5058874;28;20015;-68
2024/04/01 07:53:18;;;;;;;;;;;;;;;13.29;100.00;99583.41;5064557;28;19928;-66
2024/04/01 07:55:43;;;;;;;;;;;;;;;13.42;100.00;99587.91;5061223;28;19920;-67
2024/04/01 07:58:09;;;;;;;;;;;;;;;13.57;100.00;99623.25;5064867;28;19954;-66
2024/04/01 08:00:36;;;;;;;;;;;;;;;13.63;100.00;99629.63;5069687;28;20418;-71
2024/04/01 08:03:01;;;;;;;;;;;;;;;13.61;100.00;99627.19;5069593;28;20407;-69
2024/04/01 08:05:26;;;;;;;;;;;;;;;13.64;100.00;99658.84;5060288;28;19921;-67
2024/04/01 08:07:52;;;;;;;;;;;;;;;13.69;100.00;99666.25;5062078;28;20345;-69
2024/04/01 08:10:17;;;;;;;;;;;;;;;13.61;100.00;99645.09;5065636;28;20403;-67
2024/04/01 08:12:43;;;;;;;;;;;;;;;13.51;100.00;99642.00;5069382;28;20576;-71
2024/04/01 08:15:09;;;;;;;;;;;;;;;13.42;100.00;99628.03;5066947;28;19974;-66
2024/04/01 08:17:34;;;;;;;;;;;;;;;13.38;100.00;99617.97;5078941;28;19920;-68
2024/04/01 08:19:59;;;;;;;;;;;;;;;13.33;100.00;99602.53;5059669;28;19932;-67
2024/04/01 08:22:25;;;;;;;;;;;;;;;13.39;100.00;99600.88;5065692;28;20017;-66
2024/04/01 08:24:50;;;;;;;;;;;;;;;13.46;100.00;99607.03;5059668;28;20032;-70
2024/04/01 08:27:16;;;;;;;;;;;;;;;13.53;100.00;99613.19;5062773;28;19969;-67
2024/04/01 08:29:42;;;;;;;;;;;;;;;13.61;100.00;99623.69;5062526;28;20426;-67
2024/04/01 08:32:07;;;;;;;;;;;;;;;13.68;100.00;99632.50;5065993;28;19959;-69
2024/04/01 08:34:33;;;;;;;;;;;;;;;13.85;100.00;99633.66;5069553;28;19924;-67
2024/04/01 08:36:58;;;;;;;;;;;;;;;14.11;100.00;99615.84;5059372;28;19924;-67
2024/04/01 08:39:23;;;;;;;;;;;;;;;14.39;100.00;99621.69;5065250;28;19925;-68
2024/04/01 08:41:54;;;;;;;;;;;;;;;14.63;100.00;99608.59;5059819;28;20019;-67
2024/04/01 08:44:20;;;;;;;;;;;;;;;14.86;100.00;99608.84;5060905;28;19920;-69
2024/04/01 08:46:48;;;;;;;;;;;;;;;15.03;100.00;99604.56;5059393;28;19924;-68
2024/04/01 08:49:14;;;;;;;;;;;;;;;15.07;100.00;99602.28;5068158;28;20069;-67
2024/04/01 08:51:39;;;;;;;;;;;;;;;15.21;100.00;99600.28;5058537;28;20441;-67
2024/04/01 08:54:07;;;;;;;;;;;;;;;15.36;100.00;99603.44;5060913;28;19924;-67
2024/04/01 08:56:33;;;;;;;;;;;;;;;15.41;100.00;99601.75;5057690;28;19950;-66
2024/04/01 08:58:59;;;;;;;;;;;;;;;15.47;100.00;99611.56;5061551;28;19931;-69
2024/04/01 09:01:25;;;;;;;;;;;;;;;15.51;100.00;99620.00;5062325;28;19925;-66
2024/04/01 09:03:50;;;;;;;;;;;;;;;15.60;100.00;99612.50;5052044;28;19924;-70
2024/04/01 09:06:16;;;;;;;;;;;;;;;15.64;98.75;99616.41;5060453;28;20356;-67
2024/04/01 09:08:41;;;;;;;;;;;;;;;15.63;97.75;99620.94;5060845;28;20402;-69
2024/04/01 09:11:07;;;;;;;;;;;;;;;15.66;97.01;99620.50;5066411;28;19925;-68
2024/04/01 09:13:32;;;;;;;;;;;;;;;15.63;96.87;99610.22;5053643;28;20285;-68
2024/04/01 09:15:58;;;;;;;;;;;;;;;15.74;97.85;99611.31;5062287;28;19975;-67
2024/04/01 09:18:23;;;;;;;;;;;;;;;15.83;97.29;99606.47;5066955;28;19925;-68
2024/04/01 09:20:49;;;;;;;;;;;;;;;15.89;95.23;99608.25;5058610;28;19921;-71
2024/04/01 09:23:14;;;;;;;;;;;;;;;15.88;96.31;99595.88;5064820;28;19920;-66
2024/04/01 09:25:41;;;;;;;;;;;;;;;15.88;96.36;99590.50;5059911;28;20427;-66
2024/04/01 09:28:06;;;;;;;;;;;;;;;15.94;96.54;99581.56;5063403;28;19924;-68
2024/04/01 09:30:32;;;;;;;;;;;;;;;16.01;95.29;99579.59;5059897;28;19924;-68
2024/04/01 09:32:59;;;;;;;;;;;;;;;16.04;94.99;99585.34;5053029;28;19929;-65
2024/04/01 09:35:24;;;;;;;;;;;;;;;16.04;95.47;99577.28;5062211;28;20417;-68
2024/04/01 09:37:50;;;;;;;;;;;;;;;16.07;95.49;99574.13;5058917;28;20015;-68
2024/04/01 09:40:18;;;;;;;;;;;;;;;16.15;95.53;99577.53;5057768;28;19925;-66
2024/04/01 09:42:47;;;;;;;;;;;;;;;16.20;94.41;99572.34;5065775;28;20475;-68
2024/04/01 09:45:13;;;;;;;;;;;;;;;16.18;95.05;99569.84;5064494;28;19924;-70
2024/04/01 09:47:39;;;;;;;;;;;;;;;16.16;94.95;99561.19;5067022;28;19969;-70
2024/04/01 09:50:05;;;;;;;;;;;;;;;16.11;95.38;99561.88;5063784;28;19920;-68
2024/04/01 09:52:31;;;;;;;;;;;;;;;16.17;96.35;99562.03;5068175;28;19920;-67
2024/04/01 09:55:00;;;;;;;;;;;;;;;16.17;94.29;99556.66;5063786;28;20474;-68
2024/04/01 09:57:58;;;;;;;;;;;;;;;16.04;94.05;99558.47;5071619;28;19932;-68
2024/04/01 10:00:29;;;;;;;;;;;;;;;15.96;95.33;99544.56;5015532;28;19925;-67
2024/04/01 10:03:12;;;;;;;;;;;;;;;15.99;96.02;99544.09;5063230;28;19924;-70
2024/04/01 10:05:56;;;;;;;;;;;;;;;16.15;96.44;99535.38;5061577;28;19925;-69
2024/04/01 10:08:21;;;;;;;;;;;;;;;16.33;96.02;99540.72;5062726;28;19977;-67
2024/04/01 10:10:46;;;;;;;;;;;;;;;16.42;95.59;99533.94;5055998;28;20341;-74
2024/04/01 10:13:25;;;;;;;;;;;;;;;16.49;93.50;99525.00;5066991;28;19924;-68
2024/04/01 10:16:00;;;;;;;;;;;;;;;16.47;93.28;99527.06;5069840;28;19932;-69
2024/04/01 10:18:44;;;;;;;;;;;;;;;16.43;93.84;99524.84;5062625;28;19921;-72
2024/04/01 10:21:24;;;;;;;;;;;;;;;16.49;94.44;99520.44;5059679;28;20011;-66
2024/04/01 10:23:50;;;;;;;;;;;;;;;16.56;94.13;99528.38;5063572;28;20027;-66
2024/04/01 10:26:37;;;;;;;;;;;;;;;16.62;93.17;99524.75;5053946;28;19925;-69
2024/04/01 10:29:02;;;;;;;;;;;;;;;16.70;93.39;99519.06;5065595;28;20007;-69
2024/04/01 10:31:28;;;;;;;;;;;;;;;16.81;93.33;99520.16;5062860;28;20019;-68
2024/04/01 10:34:12;;;;;;;;;;;;;;;16.84;93.16;99493.59;5068477;28;20245;-66
2024/04/01 10:37:06;;;;;;;;;;;;;;;17.16;91.73;99512.06;5062103;28;19925;-68
2024/04/01 10:39:50;;;;;;;;;;;;;;;17.32;89.09;99506.75;5064132;28;19930;-70
2024/04/01 10:42:31;;;;;;;;;;;;;;;17.50;87.72;99510.34;5063542;28;19978;-66
2024/04/01 10:45:09;;;;;;;;;;;;;;;17.70;85.20;99515.38;5069244;28;19924;-67
2024/04/01 10:47:54;;;;;;;;;;;;;;;17.87;85.50;99518.94;5063777;28;20411;-69
2024/04/01 10:50:28;;;;;;;;;;;;;;;17.85;84.33;99523.72;5062038;28;19955;-68
2024/04/01 10:53:12;;;;;;;;;;;;;;;17.86;82.79;99528.06;5062788;28;20304;-68
2024/04/01 10:55:56;;;;;;;;;;;;;;;17.87;81.99;99525.13;5062342;28;19921;-69
2024/04/01 10:58:38;;;;;;;;;;;;;;;17.83;81.81;99529.38;5062572;28;20001;-69
2024/04/01 11:01:22;;;;;;;;;;;;;;;18.01;83.10;99531.06;5062685;28;19950;-69
2024/04/01 11:04:11;;;;;;;;;;;;;;;18.03;79.91;99528.13;5067665;28;19947;-69
2024/04/01 11:07:15;;;;;;;;;;;;;;;18.03;80.88;99525.44;5065090;28;20397;-71
2024/04/01 11:09:49;;;;;;;;;;;;;;;18.04;81.28;99525.19;5019980;28;19933;-68
2024/04/01 11:12:27;;;;;;;;;;;;;;;18.07;80.16;99529.28;5031310;28;19968;-68
2024/04/01 11:14:54;;;;;;;;;;;;;;;18.09;80.44;99533.38;5045415;28;20380;-69
2024/04/01 11:17:19;;;;;;;;;;;;;;;18.04;80.27;99535.97;5084143;28;20021;-68
2024/04/01 11:20:04;;;;;;;;;;;;;;;17.94;80.50;99542.00;5058036;28;19925;-71
2024/04/01 11:22:50;;;;;;;;;;;;;;;17.83;80.90;99539.31;5065595;28;20458;-68
2024/04/01 11:25:35;;;;;;;;;;;;;;;17.77;82.04;99546.47;5059058;28;19932;-69
2024/04/01 11:28:11;;;;;;;;;;;;;;;17.79;82.61;99538.16;5063719;28;19924;-70
2024/04/01 11:30:37;;;;;;;;;;;;;;;17.75;83.08;99542.41;5057082;28;19924;-69
2024/04/01 11:33:13;;;;;;;;;;;;;;;17.77;83.53;99537.59;5061451;28;19926;-70
2024/04/01 11:35:51;;;;;;;;;;;;;;;17.74;83.68;99535.38;5062331;28;20043;-69
2024/04/01 11:38:20;;;;;;;;;;;;;;;17.70;84.20;99542.31;5066833;28;20380;-66
2024/04/01 11:40:48;;;;;;;;;;;;;;;17.65;84.95;99543.00;5060320;28;19931;-68
2024/04/01 11:43:15;;;;;;;;;;;;;;;17.57;85.79;99541.47;5067012;28;20284;-70
2024/04/01 11:45:41;;;;;;;;;;;;;;;17.47;86.20;99540.44;5058948;28;19936;-69
2024/04/01 11:48:07;;;;;;;;;;;;;;;17.37;86.70;99541.06;5070725;28;20018;-71
2024/04/01 11:50:32;;;;;;;;;;;;;;;17.28;88.06;99537.88;5060243;28;20064;-68
2024/04/01 11:53:08;;;;;;;;;;;;;;;17.18;89.04;99531.47;5060070;28;20324;-69
2024/04/01 11:55:51;;;;;;;;;;;;;;;17.12;89.93;99537.81;5060519;28;19920;-67
2024/04/01 11:58:17;;;;;;;;;;;;;;;17.18;89.83;99536.84;5054978;28;19921;-70
2024/04/01 12:00:51;;;;;;;;;;;;;;;17.26;89.75;99534.63;5062830;28;20063;-70
2024/04/01 12:03:17;;;;;;;;;;;;;;;17.33;90.00;99539.88;5065531;28;19924;-69
2024/04/01 12:05:47;;;;;;;;;;;;;;;17.37;89.80;99535.66;5079785;28;20379;-70
2024/04/01 12:08:14;;;;;;;;;;;;;;;17.40;90.06;99543.28;5065736;28;20097;-70
2024/04/01 12:10:42;;;;;;;;;;;;;;;17.44;90.04;99547.13;5063106;28;19974;-69
2024/04/01 12:13:11;;;;;;;;;;;;;;;17.47;90.20;99546.66;5068164;28;19921;-69
2024/04/01 12:15:37;;;;;;;;;;;;;;;17.46;90.81;99538.81;5057804;28;19925;-68
2024/04/01 12:18:03;;;;;;;;;;;;;;;17.46;90.66;99542.31;5068273;28;19920;-71
2024/04/01 12:20:32;;;;;;;;;;;;;;;17.53;90.96;99544.88;5065086;28;19931;-68
2024/04/01 12:23:03;;;;;;;;;;;;;;;17.61;90.27;99539.13;5057351;28;19924;-68
2024/04/01 12:25:30;;;;;;;;;;;;;;;17.70;90.08;99550.38;5058398;28;19925;-68
2024/04/01 12:27:58;;;;;;;;;;;;;;;17.79;89.46;99543.56;5064517;28;19947;-73
2024/04/01 12:30:26;;;;;;;;;;;;;;;17.92;89.31;99543.25;5060307;28;19934;-70
2024/04/01 12:32:54;;;;;;;;;;;;;;;17.98;88.29;99545.03;5061391;28;20409;-72
2024/04/01 12:35:19;;;;;;;;;;;;;;;18.05;87.78;99534.91;5065451;28;20391;-71
2024/04/01 12:37:48;;;;;;;;;;;;;;;18.13;87.61;99547.97;5061957;28;19947;-70
2024/04/01 12:40:15;;;;;;;;;;;;;;;18.26;86.68;99549.59;5061178;28;20015;-69
2024/04/01 12:42:42;;;;;;;;;;;;;;;18.34;86.52;99551.06;5058126;28;19968;-72